MAPA DE AEROPUERTO

INFORMACIÓN METAR y TAF

METAR FOR BIIS
ADDS - METARS form results

(1734 UTC 23 October 2021)
Data provider http://aviationweather.gov/metar/data/
 
Forecast for: BIIS (ISAFJOROUR , IS)
Text: TAF BIIS 231309Z 2314/2323 14007KT 9999 BKN040
Forecast period: 1400 to 2300 UTC 23 October 2021
Forecast type: FROM: standard forecast or significant change
Winds: from the SE (140 degrees) at 8 MPH (7 knots; 3.6 m/s)
Visibility: 6 or more miles (10+ km)
Ceiling: 4000 feet AGL
Clouds: broken clouds at 4000 feet AGL
Weather: no significant weather forecast for this period
Text: TEMPO 2317/2323 SHRA BKN025
Forecast period: 1700 to 2300 UTC 23 October 2021
Forecast type: TEMPORARY: The following changes expected for less than half the time period
Visibility: missing
Ceiling: 2500 feet AGL
Clouds: broken clouds at 2500 feet AGL
Weather: SHRA  (rain showers)